createdAt,value
2023-02-19T00:00:17.510Z,3.90
2023-02-19T00:03:08.658Z,3.80
2023-02-19T00:05:39.371Z,4.00
2023-02-19T00:08:10.027Z,4.60
2023-02-19T00:10:40.744Z,4.00
2023-02-19T00:13:11.342Z,3.80
2023-02-19T00:15:42.061Z,4.20
2023-02-19T00:18:12.698Z,4.10
2023-02-19T00:20:43.417Z,3.80
2023-02-19T00:23:14.170Z,4.00
2023-02-19T00:25:44.947Z,3.70
2023-02-19T00:28:15.826Z,4.10
2023-02-19T00:30:46.634Z,3.60
2023-02-19T00:33:17.291Z,4.00
2023-02-19T00:35:47.972Z,3.80
2023-02-19T00:38:18.609Z,3.70
2023-02-19T00:40:49.335Z,3.40
2023-02-19T00:43:19.951Z,3.90
2023-02-19T00:45:50.604Z,3.50
2023-02-19T00:48:21.251Z,3.80
2023-02-19T00:50:51.958Z,3.20
2023-02-19T00:53:22.648Z,3.60
2023-02-19T00:55:53.358Z,3.50
2023-02-19T00:58:24.078Z,2.80
2023-02-19T01:00:55.150Z,3.40
2023-02-19T01:05:54.989Z,3.00
2023-02-19T01:08:25.711Z,3.30
2023-02-19T01:10:56.452Z,3.50
2023-02-19T01:13:28.056Z,3.10
2023-02-19T01:16:06.701Z,3.50
2023-02-19T01:18:37.406Z,3.40
2023-02-19T01:21:11.628Z,3.00
2023-02-19T01:23:42.976Z,3.80
2023-02-19T01:26:17.087Z,3.30
2023-02-19T01:28:48.489Z,3.30
2023-02-19T01:31:21.064Z,3.20
2023-02-19T01:33:53.503Z,3.10
2023-02-19T01:36:24.920Z,3.30
2023-02-19T01:38:55.603Z,3.30
2023-02-19T01:41:27.036Z,3.40
2023-02-19T01:44:04.311Z,3.10
2023-02-19T01:46:36.444Z,3.00
2023-02-19T01:49:10.710Z,3.40
2023-02-19T01:51:45.259Z,3.30
2023-02-19T01:54:19.978Z,3.20
2023-02-19T01:56:51.282Z,2.80
2023-02-19T01:59:22.229Z,3.20
2023-02-19T02:01:53.064Z,3.00
2023-02-19T02:04:23.819Z,3.50
2023-02-19T02:06:56.435Z,2.90
2023-02-19T02:09:29.436Z,3.10
2023-02-19T02:12:00.115Z,3.20
2023-02-19T02:14:38.035Z,2.80
2023-02-19T02:17:20.620Z,3.10
2023-02-19T02:20:07.733Z,3.40
2023-02-19T02:22:42.675Z,3.30
2023-02-19T02:25:32.100Z,3.50
2023-02-19T02:28:21.764Z,3.30
2023-02-19T02:30:56.485Z,3.20
2023-02-19T02:33:32.835Z,3.20
2023-02-19T02:36:10.835Z,3.20
2023-02-19T02:38:45.166Z,3.20
2023-02-19T02:41:17.031Z,2.90
2023-02-19T02:43:47.861Z,3.50
2023-02-19T02:46:23.283Z,2.70
2023-02-19T02:48:56.472Z,3.00
2023-02-19T02:51:30.900Z,3.10
2023-02-19T02:54:05.416Z,3.30
2023-02-19T02:56:36.604Z,2.90
2023-02-19T02:59:09.955Z,3.00
2023-02-19T03:01:46.677Z,2.90
2023-02-19T03:04:24.595Z,3.10
2023-02-19T03:06:57.630Z,3.00
2023-02-19T03:09:32.772Z,3.20
2023-02-19T03:12:05.668Z,2.70
2023-02-19T03:14:42.661Z,2.60
2023-02-19T03:17:22.003Z,3.20
2023-02-19T03:19:56.072Z,3.00
2023-02-19T03:22:29.835Z,3.00
2023-02-19T03:25:04.098Z,2.40
2023-02-19T03:27:37.984Z,2.60
2023-02-19T03:30:16.816Z,2.70
2023-02-19T03:32:52.289Z,3.20
2023-02-19T03:35:27.441Z,2.60
2023-02-19T03:38:04.772Z,2.70
2023-02-19T03:40:41.941Z,2.90
2023-02-19T03:43:19.604Z,2.80
2023-02-19T03:45:58.558Z,2.60
2023-02-19T03:48:34.135Z,2.60
2023-02-19T03:51:18.110Z,2.80
2023-02-19T03:54:00.941Z,2.70
2023-02-19T03:56:37.228Z,2.80
2023-02-19T03:59:14.374Z,3.20
2023-02-19T04:01:48.960Z,2.70
2023-02-19T04:04:25.202Z,2.80
2023-02-19T04:06:57.473Z,2.20
2023-02-19T04:09:33.553Z,2.50
2023-02-19T04:12:05.113Z,2.90
2023-02-19T04:14:39.844Z,2.80
2023-02-19T04:17:18.205Z,2.70
2023-02-19T04:19:51.432Z,2.70
2023-02-19T04:22:24.538Z,2.80
2023-02-19T04:24:55.879Z,2.90
2023-02-19T04:27:26.542Z,2.90
2023-02-19T04:29:57.173Z,3.50
2023-02-19T04:32:28.001Z,3.00
2023-02-19T04:34:58.612Z,2.80
2023-02-19T04:37:29.316Z,2.70
2023-02-19T04:40:00.167Z,2.70
2023-02-19T04:42:31.354Z,2.90
2023-02-19T04:45:02.388Z,2.60
2023-02-19T04:47:34.738Z,2.70
2023-02-19T04:50:06.314Z,2.90
2023-02-19T04:52:44.505Z,2.80
2023-02-19T04:55:15.213Z,2.50
2023-02-19T04:57:45.868Z,2.70
2023-02-19T05:00:18.182Z,3.60
2023-02-19T05:02:48.879Z,2.80
2023-02-19T05:05:19.611Z,2.90
2023-02-19T05:07:50.761Z,3.10
2023-02-19T05:10:21.414Z,2.80
2023-02-19T05:12:52.091Z,2.90
2023-02-19T05:15:22.707Z,3.10
2023-02-19T05:17:53.330Z,3.00
2023-02-19T05:20:23.983Z,2.80
2023-02-19T05:22:54.746Z,3.00
2023-02-19T05:25:25.548Z,2.50
2023-02-19T05:27:56.185Z,2.70
2023-02-19T05:30:26.888Z,3.00
2023-02-19T05:32:57.897Z,2.60
2023-02-19T05:35:28.522Z,2.50
2023-02-19T05:37:59.156Z,3.40
2023-02-19T05:40:29.767Z,2.50
2023-02-19T05:43:00.502Z,3.00
2023-02-19T05:45:31.571Z,2.80
2023-02-19T05:48:02.963Z,2.60
2023-02-19T05:50:35.164Z,2.90
2023-02-19T05:53:06.713Z,3.10
2023-02-19T05:55:37.539Z,2.70
2023-02-19T05:58:08.282Z,3.00
2023-02-19T06:00:38.932Z,2.70
2023-02-19T06:03:09.602Z,2.90
2023-02-19T06:05:40.259Z,2.80
2023-02-19T06:08:12.724Z,2.80
2023-02-19T06:10:43.698Z,3.30
2023-02-19T06:13:16.842Z,3.50
2023-02-19T06:15:48.409Z,3.40
2023-02-19T06:18:19.081Z,3.10
2023-02-19T06:20:49.849Z,3.10
2023-02-19T06:23:20.571Z,3.20
2023-02-19T06:25:51.234Z,2.90
2023-02-19T06:28:21.970Z,2.60
2023-02-19T06:30:52.610Z,3.10
2023-02-19T06:33:23.268Z,3.00
2023-02-19T06:35:53.920Z,3.00
2023-02-19T06:38:24.930Z,2.70
2023-02-19T06:40:55.510Z,3.30
2023-02-19T06:43:26.276Z,3.10
2023-02-19T06:45:59.909Z,2.70
2023-02-19T06:48:31.302Z,3.20
2023-02-19T06:51:02.041Z,3.10
2023-02-19T06:53:33.043Z,2.70
2023-02-19T06:56:06.447Z,2.80
2023-02-19T06:58:37.529Z,2.40
2023-02-19T07:03:37.461Z,3.60
2023-02-19T07:06:10.363Z,3.00
2023-02-19T07:08:41.265Z,2.50
2023-02-19T07:11:12.094Z,2.60
2023-02-19T07:13:42.895Z,2.30
2023-02-19T07:16:14.584Z,2.80
2023-02-19T07:18:45.229Z,2.40
2023-02-19T07:21:17.962Z,2.60
2023-02-19T07:23:48.667Z,2.40
2023-02-19T07:26:21.001Z,2.30
2023-02-19T07:28:52.786Z,2.30
2023-02-19T07:31:25.016Z,2.80
2023-02-19T07:33:56.399Z,2.30
2023-02-19T07:36:27.042Z,2.40
2023-02-19T07:38:58.627Z,2.10
2023-02-19T07:41:29.273Z,2.30
2023-02-19T07:43:59.983Z,2.30
2023-02-19T07:46:30.604Z,2.70
2023-02-19T07:49:01.440Z,2.30
2023-02-19T07:51:32.664Z,2.70
2023-02-19T07:54:03.645Z,2.20
2023-02-19T07:56:34.266Z,2.80
2023-02-19T07:59:04.983Z,2.60
2023-02-19T08:01:35.679Z,2.90
2023-02-19T08:04:06.743Z,3.60
2023-02-19T08:09:06.891Z,2.50
2023-02-19T08:14:06.643Z,2.70
2023-02-19T08:16:43.292Z,2.50
2023-02-19T08:19:14.226Z,2.90
2023-02-19T08:21:45.024Z,2.40
2023-02-19T08:24:15.680Z,2.90
2023-02-19T08:26:46.497Z,3.30
2023-02-19T08:29:17.240Z,2.50
2023-02-19T08:31:48.184Z,3.00
2023-02-19T08:34:18.924Z,3.10
2023-02-19T08:36:49.698Z,3.10
2023-02-19T08:39:21.243Z,3.00
2023-02-19T08:41:52.040Z,2.30
2023-02-19T08:44:22.956Z,2.60
2023-02-19T08:46:53.586Z,2.70
2023-02-19T08:49:27.729Z,2.70
2023-02-19T08:51:58.441Z,3.40
2023-02-19T08:54:29.096Z,3.60
2023-02-19T08:56:59.865Z,3.60
2023-02-19T08:59:31.617Z,3.30
2023-02-19T09:02:02.252Z,2.40
2023-02-19T09:04:33.262Z,2.30
2023-02-19T09:07:04.752Z,2.70
2023-02-19T09:09:36.807Z,2.40
2023-02-19T09:12:11.153Z,2.10
2023-02-19T09:14:41.893Z,2.40
2023-02-19T09:17:12.797Z,2.70
2023-02-19T09:19:43.533Z,3.00
2023-02-19T09:22:14.233Z,2.80
2023-02-19T09:24:45.930Z,3.10
2023-02-19T09:27:19.444Z,2.50
2023-02-19T09:29:50.169Z,2.70
2023-02-19T09:32:20.874Z,2.70
2023-02-19T09:34:51.559Z,2.80
2023-02-19T09:37:26.849Z,2.90
2023-02-19T09:39:57.535Z,2.40
2023-02-19T09:42:32.266Z,2.70
2023-02-19T09:45:04.895Z,2.30
2023-02-19T09:47:35.972Z,2.40
2023-02-19T09:53:14.415Z,2.60
2023-02-19T09:55:45.830Z,2.90
2023-02-19T09:58:25.918Z,3.30
2023-02-19T10:00:58.849Z,3.00
2023-02-19T10:03:32.409Z,2.70
2023-02-19T10:06:10.884Z,2.30
2023-02-19T10:08:45.252Z,2.90
2023-02-19T10:11:16.401Z,2.40
2023-02-19T10:13:50.906Z,3.30
2023-02-19T10:16:25.419Z,3.10
2023-02-19T10:18:56.262Z,3.10
2023-02-19T10:21:27.910Z,3.20
2023-02-19T10:24:02.561Z,2.80
2023-02-19T10:26:33.606Z,2.60
2023-02-19T10:31:34.903Z,2.50
2023-02-19T10:34:16.751Z,2.30
2023-02-19T10:36:49.930Z,2.70
2023-02-19T10:39:42.314Z,3.10
2023-02-19T10:42:23.159Z,2.50
2023-02-19T10:44:56.529Z,2.60
2023-02-19T10:47:30.498Z,2.10
2023-02-19T10:50:04.368Z,2.60
2023-02-19T10:52:36.346Z,2.10
2023-02-19T10:55:26.248Z,2.70
2023-02-19T10:57:57.533Z,2.60
2023-02-19T11:00:30.541Z,2.20
2023-02-19T11:03:22.394Z,2.40
2023-02-19T11:06:05.144Z,2.90
2023-02-19T11:08:47.441Z,2.60
2023-02-19T11:11:43.902Z,2.50
2023-02-19T11:14:18.943Z,3.10
2023-02-19T11:16:51.603Z,2.70
2023-02-19T11:19:34.301Z,2.20
2023-02-19T11:22:21.042Z,2.00
2023-02-19T11:24:56.675Z,2.50
2023-02-19T11:27:28.559Z,3.00
2023-02-19T11:30:39.160Z,2.00
2023-02-19T11:33:27.904Z,2.00
2023-02-19T11:36:30.311Z,2.40
2023-02-19T11:39:19.516Z,2.80
2023-02-19T11:42:17.104Z,2.50
2023-02-19T11:44:56.955Z,2.00
2023-02-19T11:47:58.192Z,1.90
2023-02-19T11:50:38.584Z,2.00
2023-02-19T11:53:21.407Z,2.30
2023-02-19T11:56:12.342Z,2.20
2023-02-19T11:59:00.946Z,2.00
2023-02-19T12:01:44.288Z,2.00
2023-02-19T12:04:56.445Z,2.30
2023-02-19T12:07:49.070Z,2.60
2023-02-19T12:10:33.271Z,2.90
2023-02-19T12:13:14.489Z,1.90
2023-02-19T12:18:59.002Z,2.60
2023-02-19T12:21:43.921Z,2.50
2023-02-19T12:24:38.353Z,2.20
2023-02-19T12:27:24.658Z,2.80
2023-02-19T12:30:20.115Z,1.60
2023-02-19T12:33:06.678Z,1.90
2023-02-19T12:35:58.653Z,1.90
2023-02-19T12:38:35.203Z,1.50
2023-02-19T12:41:27.357Z,2.10
2023-02-19T12:44:01.566Z,1.60
2023-02-19T12:46:36.472Z,1.60
2023-02-19T12:49:14.223Z,1.80
2023-02-19T12:51:48.682Z,1.80
2023-02-19T12:54:25.035Z,1.80
2023-02-19T12:57:00.630Z,2.10
2023-02-19T12:59:38.742Z,1.70
2023-02-19T13:02:16.293Z,1.80
2023-02-19T13:04:55.199Z,2.20
2023-02-19T13:07:30.869Z,1.80
2023-02-19T13:10:32.833Z,1.50
2023-02-19T13:13:07.223Z,1.60
2023-02-19T13:15:41.726Z,1.30
2023-02-19T13:18:18.329Z,1.70
2023-02-19T13:20:50.955Z,2.20
2023-02-19T13:23:29.018Z,2.00
2023-02-19T13:26:22.434Z,1.60
2023-02-19T13:29:05.193Z,1.50
2023-02-19T13:31:55.187Z,1.30
2023-02-19T13:34:40.231Z,2.30
2023-02-19T13:37:11.938Z,1.80
2023-02-19T13:39:49.463Z,1.60
2023-02-19T13:42:32.762Z,1.40
2023-02-19T13:45:05.143Z,1.40
2023-02-19T13:47:50.373Z,1.70
2023-02-19T13:50:23.793Z,2.10
2023-02-19T13:52:54.885Z,1.50
2023-02-19T13:58:36.571Z,1.50
2023-02-19T14:01:07.899Z,1.90
2023-02-19T14:04:07.022Z,1.70
2023-02-19T14:07:23.492Z,1.80
2023-02-19T14:09:54.780Z,1.30
2023-02-19T14:12:33.639Z,1.50
2023-02-19T14:15:50.512Z,1.20
2023-02-19T14:18:49.509Z,1.50
2023-02-19T14:21:27.922Z,1.80
2023-02-19T14:23:59.911Z,2.10
2023-02-19T14:26:34.054Z,1.80
2023-02-19T14:29:09.155Z,2.10
2023-02-19T14:31:50.349Z,2.00
2023-02-19T14:34:25.961Z,1.70
2023-02-19T14:37:01.160Z,1.60
2023-02-19T14:39:35.824Z,1.70
2023-02-19T14:42:42.155Z,1.60
2023-02-19T14:45:10.954Z,1.80
2023-02-19T14:47:46.503Z,1.90
2023-02-19T14:50:25.608Z,2.50
2023-02-19T14:52:59.858Z,2.30
2023-02-19T14:55:40.821Z,2.30
2023-02-19T15:01:01.367Z,1.40
2023-02-19T15:03:34.456Z,1.50
2023-02-19T15:06:11.263Z,1.80
2023-02-19T15:08:47.139Z,1.60
2023-02-19T15:11:21.704Z,1.60
2023-02-19T15:13:58.601Z,1.50
2023-02-19T15:16:31.265Z,1.70
2023-02-19T15:19:06.147Z,1.50
2023-02-19T15:21:44.839Z,1.70
2023-02-19T15:24:17.659Z,1.60
2023-02-19T15:26:52.214Z,1.80
2023-02-19T15:29:27.250Z,1.50
2023-02-19T15:31:59.582Z,1.60
2023-02-19T15:34:32.634Z,2.10
2023-02-19T15:37:05.833Z,1.90
2023-02-19T15:39:39.496Z,1.60
2023-02-19T15:42:16.528Z,1.50
2023-02-19T15:44:52.232Z,2.40
2023-02-19T15:47:29.677Z,2.10
2023-02-19T15:50:05.525Z,1.70
2023-02-19T15:52:44.919Z,1.50
2023-02-19T15:55:28.537Z,1.60
2023-02-19T15:58:06.797Z,2.00
2023-02-19T16:00:44.896Z,2.70
2023-02-19T16:03:20.252Z,2.90
2023-02-19T16:06:01.826Z,2.60
2023-02-19T16:08:34.662Z,2.70
2023-02-19T16:11:19.036Z,2.40
2023-02-19T16:13:50.224Z,2.70
2023-02-19T16:19:06.405Z,3.40
2023-02-19T16:21:37.266Z,3.20
2023-02-19T16:24:13.913Z,3.60
2023-02-19T16:26:46.019Z,3.20
2023-02-19T16:29:21.881Z,3.20
2023-02-19T16:31:55.201Z,3.20
2023-02-19T16:34:42.852Z,3.20
2023-02-19T16:37:37.482Z,2.80
2023-02-19T16:40:50.772Z,2.90
2023-02-19T16:43:30.295Z,2.70
2023-02-19T16:46:01.875Z,3.00
2023-02-19T16:48:37.449Z,3.10
2023-02-19T16:53:38.656Z,3.90
2023-02-19T16:56:15.884Z,3.60
2023-02-19T16:58:46.744Z,4.50
2023-02-19T17:01:19.095Z,6.20
2023-02-19T17:03:51.274Z,6.30
2023-02-19T17:06:21.979Z,5.80
2023-02-19T17:08:53.692Z,4.00
2023-02-19T17:11:58.005Z,4.00
2023-02-19T17:14:31.415Z,3.50
2023-02-19T17:17:03.655Z,3.80
2023-02-19T17:19:36.286Z,3.30
2023-02-19T17:22:14.379Z,3.70
2023-02-19T17:24:45.094Z,4.00
2023-02-19T17:27:15.946Z,4.30
2023-02-19T17:29:46.666Z,4.30
2023-02-19T17:32:17.465Z,4.10
2023-02-19T17:34:48.301Z,4.10
2023-02-19T17:37:18.934Z,4.40
2023-02-19T17:39:50.641Z,4.20
2023-02-19T17:42:21.833Z,3.60
2023-02-19T17:44:52.706Z,3.80
2023-02-19T17:47:23.719Z,2.80
2023-02-19T17:49:54.391Z,2.80
2023-02-19T17:52:26.678Z,2.90
2023-02-19T17:54:57.608Z,2.80
2023-02-19T17:57:52.630Z,3.60
2023-02-19T18:00:37.958Z,4.80
2023-02-19T18:03:13.009Z,4.80
2023-02-19T18:05:45.667Z,4.70
2023-02-19T18:08:16.326Z,3.60
2023-02-19T18:10:49.829Z,3.60
2023-02-19T18:13:20.628Z,3.60
2023-02-19T18:16:22.912Z,4.20
2023-02-19T18:18:43.869Z,4.40
2023-02-19T18:23:46.535Z,4.50
2023-02-19T18:26:21.582Z,4.50
2023-02-19T18:28:57.861Z,4.30
2023-02-19T18:31:31.770Z,3.80
2023-02-19T18:34:02.580Z,3.70
2023-02-19T18:39:46.014Z,4.40
2023-02-19T18:42:17.201Z,3.60
2023-02-19T18:44:50.757Z,4.40
2023-02-19T18:47:23.071Z,5.50
2023-02-19T18:49:55.507Z,6.70
2023-02-19T18:52:27.396Z,5.10
2023-02-19T18:54:58.395Z,4.90
2023-02-19T19:00:23.967Z,4.50
2023-02-19T19:02:54.368Z,5.20
2023-02-19T19:05:33.272Z,8.00
2023-02-19T19:08:09.808Z,6.60
2023-02-19T19:10:40.402Z,7.70
2023-02-19T19:13:13.633Z,6.60
2023-02-19T19:15:49.244Z,7.90
2023-02-19T19:18:20.213Z,10.20
2023-02-19T19:20:50.841Z,8.60
2023-02-19T19:23:26.073Z,5.70
2023-02-19T19:25:58.962Z,4.30
2023-02-19T19:28:30.640Z,3.90
2023-02-19T19:31:01.413Z,4.70
2023-02-19T19:33:32.159Z,4.70
2023-02-19T19:36:21.910Z,5.70
2023-02-19T19:38:52.766Z,4.90
2023-02-19T19:41:27.671Z,5.20
2023-02-19T19:44:01.814Z,5.00
2023-02-19T19:46:32.871Z,3.60
2023-02-19T19:51:53.960Z,5.30
2023-02-19T19:54:28.213Z,4.00
2023-02-19T19:56:59.166Z,3.80
2023-02-19T19:59:38.254Z,4.20
2023-02-19T20:02:18.270Z,4.60
2023-02-19T20:05:12.106Z,4.90
2023-02-19T20:10:19.099Z,6.20
2023-02-19T20:12:51.337Z,7.80
2023-02-19T20:15:24.061Z,6.00
2023-02-19T20:17:54.991Z,6.80
2023-02-19T20:20:25.880Z,7.60
2023-02-19T20:22:56.566Z,5.70
2023-02-19T20:25:27.550Z,5.30
2023-02-19T20:27:58.410Z,5.10
2023-02-19T20:30:38.276Z,5.60
2023-02-19T20:33:09.032Z,5.20
2023-02-19T20:35:39.956Z,4.90
2023-02-19T20:38:14.108Z,6.40
2023-02-19T20:40:44.957Z,6.40
2023-02-19T20:43:16.270Z,6.10
2023-02-19T20:45:47.081Z,6.00
2023-02-19T20:48:18.600Z,6.60
2023-02-19T20:50:49.405Z,6.80
2023-02-19T20:53:20.155Z,7.70
2023-02-19T20:55:50.827Z,7.30
2023-02-19T20:58:21.586Z,7.70
2023-02-19T21:00:52.502Z,6.90
2023-02-19T21:03:23.611Z,6.30
2023-02-19T21:05:54.266Z,4.90
2023-02-19T21:08:24.893Z,7.40
2023-02-19T21:10:55.606Z,5.20
2023-02-19T21:13:27.283Z,5.20
2023-02-19T21:15:59.237Z,4.50
2023-02-19T21:18:32.162Z,5.30
2023-02-19T21:21:02.888Z,4.10
2023-02-19T21:23:33.618Z,4.30
2023-02-19T21:26:27.785Z,4.30
2023-02-19T21:28:58.384Z,14.60
2023-02-19T21:31:37.720Z,5.70
2023-02-19T21:34:19.441Z,5.00
2023-02-19T21:37:10.712Z,5.10
2023-02-19T21:42:13.156Z,5.30
2023-02-19T21:44:43.785Z,5.40
2023-02-19T21:47:14.506Z,4.70
2023-02-19T21:49:45.222Z,5.00
2023-02-19T21:52:16.007Z,5.70
2023-02-19T21:54:46.857Z,5.60
2023-02-19T21:57:17.545Z,5.80
2023-02-19T21:59:48.155Z,6.60
2023-02-19T22:02:18.961Z,6.20
2023-02-19T22:04:55.701Z,6.30
2023-02-19T22:07:26.429Z,6.70
2023-02-19T22:09:57.044Z,6.20
2023-02-19T22:12:27.769Z,6.00
2023-02-19T22:15:01.601Z,4.60
2023-02-19T22:17:32.232Z,4.50
2023-02-19T22:20:03.201Z,4.00
2023-02-19T22:22:35.360Z,4.00
2023-02-19T22:25:06.675Z,3.90
2023-02-19T22:27:43.080Z,4.00
2023-02-19T22:30:15.894Z,4.10
2023-02-19T22:32:48.848Z,4.60
2023-02-19T22:35:19.819Z,4.90
2023-02-19T22:37:50.566Z,5.30
2023-02-19T22:40:21.322Z,5.20
2023-02-19T22:42:54.637Z,5.00
2023-02-19T22:45:25.254Z,5.40
2023-02-19T22:47:56.952Z,5.60
2023-02-19T22:50:27.530Z,5.40
2023-02-19T22:52:58.291Z,5.70
2023-02-19T22:55:28.921Z,4.50
2023-02-19T22:57:59.606Z,5.00
2023-02-19T23:00:30.288Z,4.30
2023-02-19T23:03:01.275Z,4.00
2023-02-19T23:08:01.247Z,5.10
2023-02-19T23:10:31.915Z,5.30
2023-02-19T23:13:02.582Z,4.00
2023-02-19T23:15:33.721Z,3.80
2023-02-19T23:20:33.637Z,3.50
2023-02-19T23:23:04.339Z,4.00
2023-02-19T23:25:35.145Z,4.10
2023-02-19T23:28:06.169Z,3.80
2023-02-19T23:33:06.113Z,4.00
2023-02-19T23:35:36.749Z,3.80
2023-02-19T23:38:07.441Z,4.70
2023-02-19T23:40:38.401Z,4.70
2023-02-19T23:43:09.088Z,4.80
2023-02-19T23:45:39.685Z,4.30
2023-02-19T23:48:10.352Z,4.60
2023-02-19T23:50:41.007Z,4.10
2023-02-19T23:53:11.746Z,4.90
2023-02-19T23:55:42.541Z,4.90
2023-02-19T23:58:13.853Z,4.60
